Tarporley, United Kingdom
Current Conditions -  °F | °C
As of 6:20 PM on Friday 28 Nov 2014 (Local Time) from EGNR Reporting Station
Broken Clouds Broken Clouds  
Wind Chill: 52°   Ceiling: 1200
Heat Index: 52°   Visibility: 6mi
Dew Point: 48°   Wind: 5mph
Humidity: 88%   Direction: 100°E
Pressure: 29.74"   Gusts: NA
Location:  53.16°N, 2.67°W
Report Text: EGNR 281820Z 10004KT 060V140 9999 BKN012 11/09 Q1007
Loading
Personal Weather Stations






























Interactive Weather Map New forecast layout! Learn more

10-Day Weather Forecast

Advertisements
Track Severe Weather on mobile